Time;durP1;ratioP1;P1;durP2;ratioP2;P2;SDS_P1;SDS_P2;PMS_P1;PMS_P2;Temp;Humidity;BMP_temperature;BMP_pressure;BME280_temperature;BME280_humidity;BME280_pressure;Samples;Min_cycle;Max_cycle;Signal;HPM_P1;HPM_P2
2022/07/29 00:00:02;;;;;;;;;;;;;;;19.12;79.60;96334.91;5073400;28;19983;-73
2022/07/29 00:02:28;;;;;;;;;;;;;;;19.07;79.00;96326.97;5072558;28;19964;-73
2022/07/29 00:04:54;;;;;;;;;;;;;;;19.03;79.52;96328.59;5073342;28;19961;-72
2022/07/29 00:07:20;;;;;;;;;;;;;;;18.99;79.80;96328.34;5073230;28;19968;-73
2022/07/29 00:09:46;;;;;;;;;;;;;;;18.95;79.39;96321.19;5073034;28;19964;-73
2022/07/29 00:12:12;;;;;;;;;;;;;;;18.91;79.39;96318.28;5073060;28;19988;-74
2022/07/29 00:14:38;;;;;;;;;;;;;;;18.86;79.78;96310.34;5072174;28;19973;-72
2022/07/29 00:17:04;;;;;;;;;;;;;;;18.85;79.11;96322.03;5073420;28;19979;-73
2022/07/29 00:19:29;;;;;;;;;;;;;;;18.83;79.14;96324.97;5073119;28;19968;-73
2022/07/29 00:21:55;;;;;;;;;;;;;;;18.83;79.12;96326.84;5073265;28;19971;-73
2022/07/29 00:24:21;;;;;;;;;;;;;;;18.84;79.06;96323.91;5073324;28;20412;-74
2022/07/29 00:26:47;;;;;;;;;;;;;;;18.84;78.84;96323.91;5073267;28;20388;-74
2022/07/29 00:29:13;;;;;;;;;;;;;;;18.84;78.77;96315.94;5073298;28;20009;-73
2022/07/29 00:31:39;;;;;;;;;;;;;;;18.84;79.08;96321.25;5073311;28;20042;-73
2022/07/29 00:34:06;;;;;;;;;;;;;;;18.84;79.22;96320.47;5072971;28;19960;-73
2022/07/29 00:36:31;;;;;;;;;;;;;;;18.84;79.16;96320.47;5073488;28;19963;-73
2022/07/29 00:38:57;;;;;;;;;;;;;;;18.82;79.79;96318.06;5073097;28;20465;-73
2022/07/29 00:41:23;;;;;;;;;;;;;;;18.80;79.23;96320.22;5073147;28;20006;-74
2022/07/29 00:43:49;;;;;;;;;;;;;;;18.79;78.88;96320.47;5038973;28;19966;-73
2022/07/29 00:46:15;;;;;;;;;;;;;;;18.78;79.40;96302.94;5073321;28;20375;-73
2022/07/29 00:48:41;;;;;;;;;;;;;;;18.75;79.71;96306.94;5072931;28;20025;-72
2022/07/29 00:51:07;;;;;;;;;;;;;;;18.72;80.31;96304.00;5072872;28;19958;-73
2022/07/29 00:53:33;;;;;;;;;;;;;;;18.70;80.99;96300.84;5075910;28;19965;-73
2022/07/29 00:55:59;;;;;;;;;;;;;;;18.67;80.41;96297.66;5076524;28;19960;-74
2022/07/29 00:58:26;;;;;;;;;;;;;;;18.66;80.98;96293.41;5076529;28;20059;-74
2022/07/29 01:00:52;;;;;;;;;;;;;;;18.66;81.84;96300.59;5063270;28;19974;-73
2022/07/29 01:03:18;;;;;;;;;;;;;;;18.65;81.05;96291.81;5058793;28;19963;-73
2022/07/29 01:05:45;;;;;;;;;;;;;;;18.65;81.14;96299.78;5076449;28;19970;-73
2022/07/29 01:08:11;;;;;;;;;;;;;;;18.63;81.89;96295.81;5076389;28;19981;-73
2022/07/29 01:10:38;;;;;;;;;;;;;;;18.59;81.74;96292.91;5076071;28;19959;-74
2022/07/29 01:13:04;;;;;;;;;;;;;;;18.56;80.79;96282.84;5058250;28;19992;-73
2022/07/29 01:15:30;;;;;;;;;;;;;;;18.55;81.54;96285.78;5076047;28;19987;-73
2022/07/29 01:18:10;;;;;;;;;;;;;;;18.51;82.21;96287.38;5076201;28;19958;-73
2022/07/29 01:20:55;;;;;;;;;;;;;;;18.48;82.04;96283.41;5064139;28;19989;-73
2022/07/29 01:23:39;;;;;;;;;;;;;;;18.45;81.45;96282.06;5075971;28;19958;-74
2022/07/29 01:26:04;;;;;;;;;;;;;;;18.42;82.58;96272.00;5067070;28;19960;-73
2022/07/29 01:28:33;;;;;;;;;;;;;;;18.40;82.21;96278.66;5076113;28;19961;-73
2022/07/29 01:31:02;;;;;;;;;;;;;;;18.38;83.12;96278.94;5076098;28;19969;-73
2022/07/29 01:36:24;;;;;;;;;;;;;;;18.33;81.57;96276.31;5075811;28;19965;-73
2022/07/29 01:39:13;;;;;;;;;;;;;;;18.33;81.99;96276.31;5076102;28;19960;-74
2022/07/29 01:41:46;;;;;;;;;;;;;;;18.33;81.35;96276.31;5067559;28;20316;-73
2022/07/29 01:44:18;;;;;;;;;;;;;;;18.32;81.88;96273.91;5075647;28;19992;-73
2022/07/29 01:46:48;;;;;;;;;;;;;;;18.29;82.02;96264.63;5057860;28;19970;-74
2022/07/29 01:49:16;;;;;;;;;;;;;;;18.29;81.79;96263.81;5075770;28;19951;-72
2022/07/29 01:51:47;;;;;;;;;;;;;;;18.27;82.22;96269.44;5075861;28;19964;-75
2022/07/29 01:54:16;;;;;;;;;;;;;;;18.25;82.22;96263.59;5075407;28;19966;-73
2022/07/29 01:56:43;;;;;;;;;;;;;;;18.23;81.71;96266.50;5075385;28;19960;-73
2022/07/29 01:59:10;;;;;;;;;;;;;;;18.22;82.12;96277.38;5075164;28;19968;-74
2022/07/29 02:01:37;;;;;;;;;;;;;;;18.20;82.78;96268.91;5075499;28;20431;-74
2022/07/29 02:04:05;;;;;;;;;;;;;;;18.17;82.46;96264.16;5074588;28;19965;-74
2022/07/29 02:06:32;;;;;;;;;;;;;;;18.15;82.41;96268.94;5057476;28;19973;-73
2022/07/29 02:08:58;;;;;;;;;;;;;;;18.10;83.04;96268.94;5068773;28;19969;-74
2022/07/29 02:11:24;;;;;;;;;;;;;;;18.05;83.26;96264.44;5067593;28;19984;-73
2022/07/29 02:13:52;;;;;;;;;;;;;;;18.03;83.06;96266.56;5075321;28;19969;-74
2022/07/29 02:16:19;;;;;;;;;;;;;;;17.98;84.11;96270.03;5063015;28;19955;-73
2022/07/29 02:18:47;;;;;;;;;;;;;;;17.94;83.08;96266.31;5074972;28;20340;-72
2022/07/29 02:21:15;;;;;;;;;;;;;;;17.92;83.63;96270.31;5075074;28;19983;-73
2022/07/29 02:23:42;;;;;;;;;;;;;;;17.89;83.59;96268.19;5073830;28;19959;-75
2022/07/29 02:26:08;;;;;;;;;;;;;;;17.88;83.23;96269.25;5074835;28;19959;-73
2022/07/29 02:28:34;;;;;;;;;;;;;;;17.88;83.25;96266.59;5074186;28;19972;-72
2022/07/29 02:31:02;;;;;;;;;;;;;;;17.85;83.82;96265.28;5074966;28;19964;-73
2022/07/29 02:33:29;;;;;;;;;;;;;;;17.84;83.55;96269.00;5074725;28;19966;-73
2022/07/29 02:35:56;;;;;;;;;;;;;;;17.81;83.29;96272.97;5074652;28;19988;-74
2022/07/29 02:41:11;;;;;;;;;;;;;;;17.77;82.78;96265.81;5074535;28;19974;-73
2022/07/29 02:43:38;;;;;;;;;;;;;;;17.74;82.44;96259.16;5074415;28;19990;-73
2022/07/29 02:46:04;;;;;;;;;;;;;;;17.73;82.13;96257.59;5074324;28;19985;-74
2022/07/29 02:48:43;;;;;;;;;;;;;;;17.72;82.77;96255.97;5074543;28;19965;-74
2022/07/29 02:51:17;;;;;;;;;;;;;;;17.71;82.93;96258.91;5074499;28;19958;-73
2022/07/29 02:53:44;;;;;;;;;;;;;;;17.68;82.88;96256.78;5074476;28;19963;-73
2022/07/29 02:56:14;;;;;;;;;;;;;;;17.67;82.42;96255.22;5074428;28;20058;-73
2022/07/29 02:58:46;;;;;;;;;;;;;;;17.64;82.16;96260.00;5074592;28;19989;-73
2022/07/29 03:01:16;;;;;;;;;;;;;;;17.62;82.84;96262.13;5074086;28;19967;-73
2022/07/29 03:03:46;;;;;;;;;;;;;;;17.60;83.04;96255.50;5074419;28;19956;-73
2022/07/29 03:06:13;;;;;;;;;;;;;;;17.58;83.15;96261.06;5074228;28;19966;-73
2022/07/29 03:08:39;;;;;;;;;;;;;;;17.58;82.57;96262.91;5074200;28;19966;-73
2022/07/29 03:11:07;;;;;;;;;;;;;;;17.55;83.53;96258.13;5074279;28;20316;-73
2022/07/29 03:13:33;;;;;;;;;;;;;;;17.51;82.61;96259.72;5074127;28;19979;-73
2022/07/29 03:15:59;;;;;;;;;;;;;;;17.50;82.52;96266.09;5073929;28;19988;-74
2022/07/29 03:18:26;;;;;;;;;;;;;;;17.47;83.58;96261.31;5073563;28;19975;-73
2022/07/29 03:20:51;;;;;;;;;;;;;;;17.43;82.76;96266.38;5074040;28;19971;-74
2022/07/29 03:23:22;;;;;;;;;;;;;;;17.40;83.93;96262.38;5073884;28;20011;-73
2022/07/29 03:25:49;;;;;;;;;;;;;;;17.36;83.59;96265.81;5073722;28;20435;-73
2022/07/29 03:28:14;;;;;;;;;;;;;;;17.33;83.93;96266.38;5073974;28;19960;-74
2022/07/29 03:30:40;;;;;;;;;;;;;;;17.32;83.52;96267.41;5073106;28;19968;-73
2022/07/29 03:33:06;;;;;;;;;;;;;;;17.29;83.05;96266.09;5073789;28;19960;-73
2022/07/29 03:35:32;;;;;;;;;;;;;;;17.28;82.77;96256.53;5073768;28;19963;-73
2022/07/29 03:37:58;;;;;;;;;;;;;;;17.28;82.93;96256.53;5073624;28;20049;-73
2022/07/29 03:40:30;;;;;;;;;;;;;;;17.29;82.94;96254.72;5073787;28;19981;-73
2022/07/29 03:42:56;;;;;;;;;;;;;;;17.27;82.60;96262.13;5074188;28;20363;-74
2022/07/29 03:45:22;;;;;;;;;;;;;;;17.25;82.92;96257.88;5073597;28;19975;-73
2022/07/29 03:47:54;;;;;;;;;;;;;;;17.24;82.60;96266.91;5072759;28;19970;-73
2022/07/29 03:50:21;;;;;;;;;;;;;;;17.23;83.09;96264.50;5073540;28;19957;-73
2022/07/29 03:52:47;;;;;;;;;;;;;;;17.20;82.94;96265.03;5073502;28;19970;-72
2022/07/29 03:55:13;;;;;;;;;;;;;;;17.19;83.22;96266.09;5073707;28;19959;-73
2022/07/29 03:57:40;;;;;;;;;;;;;;;17.17;83.26;96271.66;5072634;28;20314;-73
2022/07/29 04:00:06;;;;;;;;;;;;;;;17.16;82.96;96272.72;5073242;28;20347;-73
2022/07/29 04:02:32;;;;;;;;;;;;;;;17.14;83.58;96274.84;5073917;28;19964;-73
2022/07/29 04:04:59;;;;;;;;;;;;;;;17.13;83.29;96273.22;5073440;28;19958;-74
2022/07/29 04:07:25;;;;;;;;;;;;;;;17.13;83.10;96275.88;5073395;28;19972;-73
2022/07/29 04:09:51;;;;;;;;;;;;;;;17.12;83.07;96274.31;5073424;28;20413;-73
2022/07/29 04:12:17;;;;;;;;;;;;;;;17.10;83.30;96279.06;5073093;28;19988;-74
2022/07/29 04:14:43;;;;;;;;;;;;;;;17.09;83.53;96271.38;5055552;28;19965;-73
2022/07/29 04:17:09;;;;;;;;;;;;;;;17.07;83.51;96274.28;5073428;28;19969;-73
2022/07/29 04:19:34;;;;;;;;;;;;;;;17.05;83.72;96276.44;5073427;28;19965;-73
2022/07/29 04:22:00;;;;;;;;;;;;;;;17.04;83.71;96282.78;5073320;28;20069;-73
2022/07/29 04:24:27;;;;;;;;;;;;;;;17.06;83.33;96275.34;5055188;28;19971;-73
2022/07/29 04:26:53;;;;;;;;;;;;;;;17.05;84.38;96276.44;5073744;28;20429;-74
2022/07/29 04:29:19;;;;;;;;;;;;;;;17.04;84.18;96274.81;5077134;28;20025;-73
2022/07/29 04:31:45;;;;;;;;;;;;;;;17.03;84.30;96274.03;5077083;28;20427;-74
2022/07/29 04:34:12;;;;;;;;;;;;;;;17.05;84.46;96279.06;5077111;28;19960;-73
2022/07/29 04:36:37;;;;;;;;;;;;;;;17.07;84.17;96276.16;5076960;28;20430;-73
2022/07/29 04:39:03;;;;;;;;;;;;;;;17.12;84.68;96276.97;5076773;28;19990;-75
2022/07/29 04:41:30;;;;;;;;;;;;;;;17.18;84.60;96278.56;5076995;28;20333;-73
2022/07/29 04:43:57;;;;;;;;;;;;;;;17.26;85.21;96271.94;5076704;28;20407;-73
2022/07/29 04:46:22;;;;;;;;;;;;;;;17.35;84.84;96269.56;5076572;28;19962;-74
2022/07/29 04:48:48;;;;;;;;;;;;;;;17.41;86.00;96268.50;5076206;28;19989;-73
2022/07/29 04:51:15;;;;;;;;;;;;;;;17.49;85.80;96278.56;5075900;28;19991;-73
2022/07/29 04:53:41;;;;;;;;;;;;;;;17.60;84.72;96274.84;5076720;28;19962;-73
2022/07/29 04:56:06;;;;;;;;;;;;;;;17.71;84.96;96272.19;5076461;28;20043;-73
2022/07/29 04:58:35;;;;;;;;;;;;;;;17.85;86.44;96273.25;5076698;28;19960;-75
2022/07/29 05:01:01;;;;;;;;;;;;;;;17.99;85.29;96270.81;5076012;28;19969;-73
2022/07/29 05:03:27;;;;;;;;;;;;;;;18.15;84.98;96276.88;5076636;28;19961;-72
2022/07/29 05:05:53;;;;;;;;;;;;;;;18.31;85.14;96275.78;5066522;28;19963;-73
2022/07/29 05:08:19;;;;;;;;;;;;;;;18.34;83.90;96283.19;5076269;28;20362;-73
2022/07/29 05:10:46;;;;;;;;;;;;;;;18.26;85.47;96281.88;5076817;28;19959;-74
2022/07/29 05:13:12;;;;;;;;;;;;;;;18.25;83.87;96287.47;5070457;28;20446;-73
2022/07/29 05:15:38;;;;;;;;;;;;;;;18.33;86.04;96284.28;5076407;28;20025;-74
2022/07/29 05:18:04;;;;;;;;;;;;;;;18.40;84.84;96287.41;5075225;28;20344;-73
2022/07/29 05:20:30;;;;;;;;;;;;;;;18.44;84.10;96288.47;5073484;28;20440;-73
2022/07/29 05:22:57;;;;;;;;;;;;;;;18.51;85.23;96298.00;5068716;28;19976;-72
2022/07/29 05:25:23;;;;;;;;;;;;;;;18.62;84.22;96291.56;5075965;28;19966;-73
2022/07/29 05:27:49;;;;;;;;;;;;;;;18.67;83.98;96297.66;5076328;28;19969;-73
2022/07/29 05:30:16;;;;;;;;;;;;;;;18.79;84.10;96300.03;5075965;28;19958;-73
2022/07/29 05:32:41;;;;;;;;;;;;;;;18.93;83.15;96302.06;5075959;28;19971;-73
2022/07/29 05:35:07;;;;;;;;;;;;;;;19.03;81.87;96300.16;5075892;28;20055;-73
2022/07/29 05:37:34;;;;;;;;;;;;;;;18.98;81.43;96296.72;5057885;28;19965;-73
2022/07/29 05:40:00;;;;;;;;;;;;;;;18.94;81.88;96303.66;5074654;28;19964;-73
2022/07/29 05:42:26;;;;;;;;;;;;;;;19.12;82.30;96308.34;5075922;28;19963;-73
2022/07/29 05:44:52;;;;;;;;;;;;;;;19.41;83.00;96308.41;5075847;28;20006;-73
2022/07/29 05:47:18;;;;;;;;;;;;;;;19.68;81.07;96302.59;5075826;28;19968;-74
2022/07/29 05:49:44;;;;;;;;;;;;;;;19.83;80.05;96308.88;5075610;28;20329;-74
2022/07/29 05:52:10;;;;;;;;;;;;;;;19.92;79.17;96317.06;5075447;28;19956;-73
2022/07/29 05:54:36;;;;;;;;;;;;;;;19.96;78.47;96305.56;5075826;28;19957;-72
2022/07/29 05:57:02;;;;;;;;;;;;;;;19.88;79.59;96311.50;5075364;28;19967;-73
2022/07/29 05:59:28;;;;;;;;;;;;;;;19.94;79.54;96310.38;5072491;28;19954;-73
2022/07/29 06:01:54;;;;;;;;;;;;;;;20.07;79.22;96307.06;5074251;28;19993;-74
2022/07/29 06:04:20;;;;;;;;;;;;;;;20.47;78.91;96314.88;5075349;28;19970;-74
2022/07/29 06:06:46;;;;;;;;;;;;;;;20.92;76.75;96317.31;5075219;28;19964;-73
2022/07/29 06:09:12;;;;;;;;;;;;;;;21.36;74.72;96314.25;5075656;28;19996;-74
2022/07/29 06:11:38;;;;;;;;;;;;;;;21.79;73.15;96314.13;5074873;28;19996;-74
2022/07/29 06:14:04;;;;;;;;;;;;;;;22.18;72.23;96312.91;5057467;28;19989;-73
2022/07/29 06:16:29;;;;;;;;;;;;;;;22.41;69.71;96297.81;5075009;28;19997;-74
2022/07/29 06:18:55;;;;;;;;;;;;;;;22.36;70.06;96308.59;5075223;28;20387;-74
2022/07/29 06:21:21;;;;;;;;;;;;;;;22.41;69.71;96316.53;5074757;28;19980;-75
2022/07/29 06:23:47;;;;;;;;;;;;;;;22.41;69.79;96316.53;5074940;28;20475;-75
2022/07/29 06:26:13;;;;;;;;;;;;;;;22.49;68.82;96302.47;5074965;28;19974;-74
2022/07/29 06:28:39;;;;;;;;;;;;;;;22.70;67.85;96291.38;5074774;28;20438;-74
2022/07/29 06:31:05;;;;;;;;;;;;;;;22.63;68.24;96301.66;5074935;28;20050;-74
2022/07/29 06:33:31;;;;;;;;;;;;;;;22.54;67.23;96298.09;5056634;28;19961;-73
2022/07/29 06:35:57;;;;;;;;;;;;;;;22.29;68.73;96316.22;5074668;28;20011;-73
2022/07/29 06:38:23;;;;;;;;;;;;;;;21.75;69.61;96317.69;5074795;28;20076;-74
2022/07/29 06:41:05;;;;;;;;;;;;;;;21.36;70.76;96326.81;5074625;28;19971;-73
2022/07/29 06:43:38;;;;;;;;;;;;;;;21.16;72.79;96330.56;5074371;28;19965;-72
2022/07/29 06:46:06;;;;;;;;;;;;;;;21.11;73.92;96336.75;5074305;28;19952;-73
2022/07/29 06:48:32;;;;;;;;;;;;;;;21.02;72.78;96330.47;5073845;28;19964;-73
2022/07/29 06:50:58;;;;;;;;;;;;;;;20.92;73.67;96335.97;5074050;28;19969;-73
2022/07/29 06:53:24;;;;;;;;;;;;;;;20.97;74.05;96335.88;5074353;28;19983;-73
2022/07/29 06:55:50;;;;;;;;;;;;;;;21.03;75.16;96337.41;5074239;28;19967;-73
2022/07/29 06:58:17;;;;;;;;;;;;;;;21.17;74.12;96338.28;5074183;28;20444;-73
2022/07/29 07:00:44;;;;;;;;;;;;;;;21.46;74.36;96338.16;5061432;28;19974;-73
2022/07/29 07:03:10;;;;;;;;;;;;;;;21.57;73.90;96336.13;5074544;28;19961;-73
2022/07/29 07:05:36;;;;;;;;;;;;;;;21.58;73.42;96343.03;5074159;28;19983;-73
2022/07/29 07:08:02;;;;;;;;;;;;;;;21.60;73.12;96337.41;5074052;28;19966;-74
2022/07/29 07:10:29;;;;;;;;;;;;;;;21.55;73.82;96346.28;5056371;28;19967;-73
2022/07/29 07:12:55;;;;;;;;;;;;;;;21.42;74.20;96360.38;5074219;28;19990;-73
2022/07/29 07:15:21;;;;;;;;;;;;;;;21.25;73.55;96345.63;5073991;28;20062;-73
2022/07/29 07:17:48;;;;;;;;;;;;;;;21.36;74.27;96362.28;5073769;28;19999;-74
2022/07/29 07:20:17;;;;;;;;;;;;;;;21.41;73.91;96362.19;5074270;28;19963;-73
2022/07/29 07:22:43;;;;;;;;;;;;;;;21.56;73.39;96366.53;5073804;28;19962;-73
2022/07/29 07:25:10;;;;;;;;;;;;;;;21.75;74.22;96360.38;5073716;28;19961;-72
2022/07/29 07:27:36;;;;;;;;;;;;;;;21.95;73.43;96360.06;5073888;28;20336;-74
2022/07/29 07:30:05;;;;;;;;;;;;;;;21.99;71.16;96347.69;5073873;28;19962;-73
2022/07/29 07:32:31;;;;;;;;;;;;;;;21.85;71.80;96360.22;5073627;28;19962;-74
2022/07/29 07:34:58;;;;;;;;;;;;;;;21.92;73.14;96354.50;5074248;28;20354;-72
2022/07/29 07:37:24;;;;;;;;;;;;;;;22.19;72.26;96353.75;5073877;28;19964;-74
2022/07/29 07:39:53;;;;;;;;;;;;;;;22.31;71.47;96354.13;5070113;28;19960;-74
2022/07/29 07:42:19;;;;;;;;;;;;;;;22.36;71.70;96348.66;5073418;28;19975;-74
2022/07/29 07:44:45;;;;;;;;;;;;;;;22.51;70.97;96347.59;5073130;28;19963;-74
2022/07/29 07:47:11;;;;;;;;;;;;;;;22.76;70.50;96342.81;5052301;28;20438;-73
2022/07/29 07:49:38;;;;;;;;;;;;;;;22.98;69.42;96339.44;5071369;28;19972;-72
2022/07/29 07:52:04;;;;;;;;;;;;;;;22.88;68.84;96343.09;5072774;28;20426;-74
2022/07/29 07:54:30;;;;;;;;;;;;;;;22.91;69.86;96353.22;5055792;28;19956;-73
2022/07/29 07:56:57;;;;;;;;;;;;;;;23.13;69.28;96344.47;5072868;28;19969;-73
2022/07/29 07:59:22;;;;;;;;;;;;;;;23.23;69.74;96349.63;5073365;28;19963;-72
2022/07/29 08:01:49;;;;;;;;;;;;;;;23.21;68.88;96348.34;5074024;28;20004;-73
2022/07/29 08:04:15;;;;;;;;;;;;;;;23.27;68.60;96349.81;5077920;28;19970;-73
2022/07/29 08:06:41;;;;;;;;;;;;;;;23.20;68.45;96338.72;5077603;28;20307;-72
2022/07/29 08:09:07;;;;;;;;;;;;;;;23.09;67.44;96341.59;5059622;28;20346;-72
2022/07/29 08:11:33;;;;;;;;;;;;;;;22.91;69.07;96342.53;5077561;28;19982;-72
2022/07/29 08:14:01;;;;;;;;;;;;;;;22.88;70.12;96353.81;5077263;28;20017;-73
2022/07/29 08:16:27;;;;;;;;;;;;;;;23.08;69.43;96353.41;5078106;28;20420;-74
2022/07/29 08:18:56;;;;;;;;;;;;;;;23.43;69.22;96355.59;5077757;28;19957;-72
2022/07/29 08:21:23;;;;;;;;;;;;;;;23.38;66.79;96342.34;5072069;28;19970;-73
2022/07/29 08:23:52;;;;;;;;;;;;;;;23.13;68.87;96351.72;5077941;28;19969;-73
2022/07/29 08:26:19;;;;;;;;;;;;;;;23.08;69.49;96356.09;5077549;28;20408;-74
2022/07/29 08:28:45;;;;;;;;;;;;;;;23.21;68.94;96357.16;5077860;28;19965;-72
2022/07/29 08:31:12;;;;;;;;;;;;;;;23.37;68.36;96344.22;5059674;28;19964;-73
2022/07/29 08:33:38;;;;;;;;;;;;;;;23.52;67.15;96348.44;5076607;28;19947;-72
2022/07/29 08:36:05;;;;;;;;;;;;;;;23.65;68.11;96355.63;5059075;28;20314;-73
2022/07/29 08:38:30;;;;;;;;;;;;;;;23.81;66.41;96341.88;5075730;28;19968;-73
2022/07/29 08:40:56;;;;;;;;;;;;;;;23.99;65.62;96337.44;5073841;28;20014;-72
2022/07/29 08:43:22;;;;;;;;;;;;;;;24.13;65.35;96334.66;5071805;28;20056;-72
2022/07/29 08:45:50;;;;;;;;;;;;;;;24.19;63.09;96322.69;5076033;28;19963;-74
2022/07/29 08:48:17;;;;;;;;;;;;;;;24.30;64.68;96340.88;5075494;28;19954;-73
2022/07/29 08:50:43;;;;;;;;;;;;;;;24.56;64.26;96339.44;5074525;28;19957;-73
2022/07/29 08:53:13;;;;;;;;;;;;;;;24.63;62.53;96323.69;5076682;28;20344;-73
2022/07/29 08:55:42;;;;;;;;;;;;;;;24.77;62.28;96329.72;5076531;28;19979;-73
2022/07/29 08:58:08;;;;;;;;;;;;;;;24.88;62.18;96338.25;5076695;28;19973;-73
2022/07/29 09:00:36;;;;;;;;;;;;;;;24.91;59.12;96310.81;5076828;28;19966;-74
2022/07/29 09:03:03;;;;;;;;;;;;;;;24.98;59.13;96310.34;5076413;28;19981;-72
2022/07/29 09:05:30;;;;;;;;;;;;;;;24.87;59.02;96302.59;5076081;28;19964;-75
2022/07/29 09:07:56;;;;;;;;;;;;;;;24.77;58.97;96310.16;5074639;28;20341;-73
2022/07/29 09:10:22;;;;;;;;;;;;;;;24.61;60.28;96320.50;5072886;28;20058;-73
2022/07/29 09:12:48;;;;;;;;;;;;;;;24.49;59.78;96313.09;5075599;28;19987;-72
2022/07/29 09:15:14;;;;;;;;;;;;;;;24.57;59.26;96308.81;5076396;28;19973;-73
2022/07/29 09:17:40;;;;;;;;;;;;;;;24.65;58.81;96298.16;5076063;28;20439;-73
2022/07/29 09:20:10;;;;;;;;;;;;;;;24.75;58.14;96285.53;5076250;28;20064;-74
2022/07/29 09:22:36;;;;;;;;;;;;;;;24.71;60.11;96313.00;5076090;28;19983;-73
2022/07/29 09:25:02;;;;;;;;;;;;;;;24.65;59.02;96290.09;5076010;28;20418;-72
2022/07/29 09:27:28;;;;;;;;;;;;;;;24.56;60.67;96310.72;5076459;28;19972;-73
2022/07/29 09:30:12;;;;;;;;;;;;;;;24.56;59.54;96299.22;5076178;28;19983;-72
2022/07/29 09:32:57;;;;;;;;;;;;;;;24.50;57.42;96277.13;5076013;28;19956;-73
2022/07/29 09:35:23;;;;;;;;;;;;;;;24.43;58.24;96290.94;5075901;28;19950;-73
2022/07/29 09:37:50;;;;;;;;;;;;;;;24.42;58.21;96283.22;5075827;28;19971;-73
2022/07/29 09:40:17;;;;;;;;;;;;;;;24.42;57.80;96285.91;5076367;28;20410;-72
2022/07/29 09:42:43;;;;;;;;;;;;;;;24.45;59.18;96293.34;5057767;28;19994;-72
2022/07/29 09:45:09;;;;;;;;;;;;;;;24.58;60.59;96319.25;5075700;28;20435;-73
2022/07/29 09:47:46;;;;;;;;;;;;;;;24.80;56.79;96267.41;5074949;28;19963;-73
2022/07/29 09:50:12;;;;;;;;;;;;;;;25.08;54.31;96242.97;5058022;28;19959;-72
2022/07/29 09:52:46;;;;;;;;;;;;;;;25.27;52.39;96218.50;5075585;28;19960;-72
2022/07/29 09:55:12;;;;;;;;;;;;;;;25.45;52.55;96205.81;5075638;28;19957;-71
2022/07/29 09:57:38;;;;;;;;;;;;;;;25.60;55.54;96245.59;5075543;28;20059;-72
2022/07/29 10:00:06;;;;;;;;;;;;;;;25.78;52.63;96226.75;5075289;28;20496;-72
2022/07/29 10:02:33;;;;;;;;;;;;;;;25.98;53.82;96228.75;5074854;28;19984;-71
2022/07/29 10:05:00;;;;;;;;;;;;;;;26.22;51.16;96211.25;5057597;28;20413;-71
2022/07/29 10:07:26;;;;;;;;;;;;;;;26.36;53.50;96241.38;5057464;28;19972;-72
2022/07/29 10:09:54;;;;;;;;;;;;;;;26.40;49.84;96201.22;5075346;28;19987;-74
2022/07/29 10:12:20;;;;;;;;;;;;;;;26.31;51.50;96212.00;5075160;28;20336;-73
2022/07/29 10:14:47;;;;;;;;;;;;;;;26.28;52.51;96228.78;5075100;28;19959;-74
2022/07/29 10:17:12;;;;;;;;;;;;;;;26.18;52.14;96213.81;5075899;28;20341;-74
2022/07/29 10:19:38;;;;;;;;;;;;;;;26.16;50.95;96218.72;5074851;28;20003;-74
2022/07/29 10:22:06;;;;;;;;;;;;;;;26.07;52.59;96221.44;5074905;28;20041;-74
2022/07/29 10:24:32;;;;;;;;;;;;;;;26.01;53.74;96228.09;5074623;28;20323;-74
2022/07/29 10:26:59;;;;;;;;;;;;;;;25.88;51.52;96212.97;5074946;28;19964;-74
2022/07/29 10:29:25;;;;;;;;;;;;;;;25.79;52.51;96233.72;5074526;28;19954;-73
2022/07/29 10:32:10;;;;;;;;;;;;;;;25.79;55.05;96282.06;5074747;28;20418;-77
2022/07/29 10:34:53;;;;;;;;;;;;;;;25.68;52.57;96254.72;5063557;28;19961;-74
2022/07/29 10:37:24;;;;;;;;;;;;;;;25.17;50.65;96267.09;5074487;28;19975;-74
2022/07/29 10:41:26;;;;;;;;;;;;;;;24.66;52.19;96275.59;5074654;28;19955;-74
2022/07/29 10:42:55;;;;;;;;;;;;;;;24.07;52.74;96305.31;5056504;28;20333;-77
2022/07/29 10:45:22;;;;;;;;;;;;;;;23.29;54.87;96304.81;5074589;28;20337;-78
2022/07/29 10:47:48;;;;;;;;;;;;;;;22.34;56.23;96340.16;5074884;28;19963;-78
2022/07/29 10:50:14;;;;;;;;;;;;;;;21.80;59.55;96379.00;5074381;28;19961;-81
2022/07/29 10:52:49;;;;;;;;;;;;;;;21.37;64.60;96403.88;5074448;28;20049;-85
2022/07/29 10:55:30;;;;;;;;;;;;;;;20.82;67.44;96380.31;5056710;28;20445;-87
2022/07/29 10:58:11;;;;;;;;;;;;;;;20.26;72.17;96373.72;5056595;28;19954;-83
2022/07/29 11:00:37;;;;;;;;;;;;;;;20.13;71.79;96369.03;5056497;28;19957;-81
2022/07/29 11:03:03;;;;;;;;;;;;;;;20.12;72.22;96366.66;5074068;28;19983;-80
2022/07/29 11:05:31;;;;;;;;;;;;;;;20.20;71.72;96353.53;5056628;28;19968;-80
2022/07/29 11:08:12;;;;;;;;;;;;;;;20.28;72.14;96355.56;5074117;28;19968;-79
2022/07/29 11:10:38;;;;;;;;;;;;;;;20.27;71.71;96345.97;5073816;28;19960;-79
2022/07/29 11:13:04;;;;;;;;;;;;;;;20.20;74.22;96350.88;5074401;28;19986;-79
2022/07/29 11:15:50;;;;;;;;;;;;;;;20.27;76.94;96353.19;5074114;28;19972;-80
2022/07/29 11:18:16;;;;;;;;;;;;;;;20.41;76.60;96346.13;5073780;28;19983;-80
2022/07/29 11:20:44;;;;;;;;;;;;;;;20.55;75.93;96348.09;5074041;28;20423;-80
2022/07/29 11:23:26;;;;;;;;;;;;;;;20.56;71.68;96328.38;5073713;28;19977;-80
2022/07/29 11:26:11;;;;;;;;;;;;;;;20.49;70.74;96326.03;5074230;28;19959;-76
2022/07/29 11:28:42;;;;;;;;;;;;;;;20.60;73.01;96337.38;5074016;28;19965;-78
2022/07/29 11:31:09;;;;;;;;;;;;;;;20.63;72.80;96334.16;5073754;28;19965;-78
2022/07/29 11:33:35;;;;;;;;;;;;;;;20.62;73.84;96343.22;5073562;28;19953;-78
2022/07/29 11:36:11;;;;;;;;;;;;;;;20.59;73.71;96338.47;5039028;28;20341;-79
2022/07/29 11:38:37;;;;;;;;;;;;;;;20.59;76.05;96341.16;5055870;28;19959;-78
2022/07/29 11:41:24;;;;;;;;;;;;;;;20.57;74.01;96345.94;5073501;28;19975;-78
2022/07/29 11:43:52;;;;;;;;;;;;;;;20.60;75.40;96346.19;5073728;28;20040;-78
2022/07/29 11:46:38;;;;;;;;;;;;;;;20.64;73.70;96343.75;5073932;28;19966;-78
2022/07/29 11:49:04;;;;;;;;;;;;;;;20.73;71.60;96335.94;5055430;28;19958;-78
2022/07/29 11:51:31;;;;;;;;;;;;;;;20.92;73.36;96341.28;5073423;28;19966;-78
2022/07/29 11:53:57;;;;;;;;;;;;;;;21.02;73.15;96341.94;5073393;28;19962;-78
2022/07/29 11:56:23;;;;;;;;;;;;;;;21.09;74.10;96349.59;5073452;28;19971;-79
2022/07/29 11:58:49;;;;;;;;;;;;;;;21.20;73.65;96356.34;5073323;28;20339;-77
2022/07/29 12:01:16;;;;;;;;;;;;;;;21.31;74.50;96361.53;5071842;28;19960;-77
2022/07/29 12:03:42;;;;;;;;;;;;;;;21.38;74.88;96364.66;5070362;28;19963;-77
2022/07/29 12:06:13;;;;;;;;;;;;;;;21.47;74.35;96368.28;5055274;28;20070;-77
2022/07/29 12:08:42;;;;;;;;;;;;;;;21.55;76.81;96362.28;5067301;28;19962;-77
2022/07/29 12:11:15;;;;;;;;;;;;;;;21.60;72.51;96353.41;5072141;28;19973;-77
2022/07/29 12:13:41;;;;;;;;;;;;;;;21.57;70.24;96346.78;5073590;28;19969;-74
2022/07/29 12:16:07;;;;;;;;;;;;;;;21.59;73.08;96357.97;5055841;28;19975;-76
2022/07/29 12:18:32;;;;;;;;;;;;;;;21.65;73.08;96362.13;5073363;28;20369;-76
2022/07/29 12:20:59;;;;;;;;;;;;;;;21.63;67.04;96337.63;5073707;28;19970;-75
2022/07/29 12:23:25;;;;;;;;;;;;;;;21.62;68.90;96348.56;5072984;28;20493;-74
2022/07/29 12:25:51;;;;;;;;;;;;;;;21.64;70.42;96349.06;5073278;28;20357;-74
2022/07/29 12:28:21;;;;;;;;;;;;;;;21.66;72.79;96357.59;5073252;28;19974;-74
2022/07/29 12:30:49;;;;;;;;;;;;;;;21.67;73.60;96370.66;5073331;28;19963;-75
2022/07/29 12:33:17;;;;;;;;;;;;;;;21.66;73.07;96381.59;5073378;28;20437;-77
2022/07/29 12:35:44;;;;;;;;;;;;;;;21.61;73.06;96382.47;5064359;28;19967;-74
2022/07/29 12:38:11;;;;;;;;;;;;;;;21.54;72.61;96421.28;5072951;28;20412;-75
2022/07/29 12:40:37;;;;;;;;;;;;;;;21.37;69.89;96417.19;5073005;28;19985;-83
2022/07/29 12:43:11;;;;;;;;;;;;;;;21.14;71.07;96426.84;5072977;28;20022;-81
2022/07/29 12:45:38;;;;;;;;;;;;;;;20.93;73.60;96431.63;5055354;28;19962;-80
2022/07/29 12:48:05;;;;;;;;;;;;;;;20.79;75.07;96423.53;5055995;28;19961;-81
2022/07/29 12:50:32;;;;;;;;;;;;;;;20.68;76.45;96430.84;5076729;28;19960;-81
2022/07/29 12:53:11;;;;;;;;;;;;;;;20.59;77.44;96427.19;5059046;28;19958;-81
2022/07/29 12:55:38;;;;;;;;;;;;;;;20.51;75.41;96408.34;5076607;28;19951;-81